sensor_id;sensor_type;location;lat;lon;timestamp;P1;durP1;ratioP1;P2;durP2;ratioP2
13649;SDS011;6898;50.918;4.688;2023-10-31T00:01:52;0.90;;;0.90;;
13649;SDS011;6898;50.918;4.688;2023-10-31T00:04:21;0.90;;;0.90;;
13649;SDS011;6898;50.918;4.688;2023-10-31T00:06:50;1.00;;;1.00;;
13649;SDS011;6898;50.918;4.688;2023-10-31T00:09:20;1.10;;;1.00;;
13649;SDS011;6898;50.918;4.688;2023-10-31T00:11:48;1.08;;;1.00;;
13649;SDS011;6898;50.918;4.688;2023-10-31T00:14:17;1.10;;;1.10;;
13649;SDS011;6898;50.918;4.688;2023-10-31T00:16:46;0.90;;;0.90;;
13649;SDS011;6898;50.918;4.688;2023-10-31T00:19:15;0.90;;;0.90;;
13649;SDS011;6898;50.918;4.688;2023-10-31T00:21:43;1.00;;;1.00;;
13649;SDS011;6898;50.918;4.688;2023-10-31T00:24:12;1.00;;;1.00;;
13649;SDS011;6898;50.918;4.688;2023-10-31T00:26:42;1.00;;;1.00;;
13649;SDS011;6898;50.918;4.688;2023-10-31T00:29:13;1.30;;;1.20;;
13649;SDS011;6898;50.918;4.688;2023-10-31T00:31:41;1.20;;;1.10;;
13649;SDS011;6898;50.918;4.688;2023-10-31T00:34:09;1.00;;;1.00;;
13649;SDS011;6898;50.918;4.688;2023-10-31T00:36:37;1.10;;;1.10;;
13649;SDS011;6898;50.918;4.688;2023-10-31T00:39:06;1.00;;;1.00;;
13649;SDS011;6898;50.918;4.688;2023-10-31T00:41:34;1.08;;;1.08;;
13649;SDS011;6898;50.918;4.688;2023-10-31T00:44:04;1.00;;;1.00;;
13649;SDS011;6898;50.918;4.688;2023-10-31T00:46:33;1.00;;;1.00;;
13649;SDS011;6898;50.918;4.688;2023-10-31T00:49:01;1.00;;;1.00;;
13649;SDS011;6898;50.918;4.688;2023-10-31T00:51:29;0.90;;;0.90;;
13649;SDS011;6898;50.918;4.688;2023-10-31T00:53:57;0.90;;;0.90;;
13649;SDS011;6898;50.918;4.688;2023-10-31T00:56:26;1.00;;;1.00;;
13649;SDS011;6898;50.918;4.688;2023-10-31T00:58:54;1.00;;;1.00;;
13649;SDS011;6898;50.918;4.688;2023-10-31T01:01:23;1.00;;;1.00;;
13649;SDS011;6898;50.918;4.688;2023-10-31T01:03:52;1.00;;;1.00;;
13649;SDS011;6898;50.918;4.688;2023-10-31T01:06:20;1.00;;;1.00;;
13649;SDS011;6898;50.918;4.688;2023-10-31T01:08:48;0.90;;;0.90;;
13649;SDS011;6898;50.918;4.688;2023-10-31T01:11:16;0.90;;;0.90;;
13649;SDS011;6898;50.918;4.688;2023-10-31T01:13:45;1.00;;;1.00;;
13649;SDS011;6898;50.918;4.688;2023-10-31T01:16:13;0.95;;;0.95;;
13649;SDS011;6898;50.918;4.688;2023-10-31T01:18:42;0.80;;;0.80;;
13649;SDS011;6898;50.918;4.688;2023-10-31T01:21:11;0.80;;;0.80;;
13649;SDS011;6898;50.918;4.688;2023-10-31T01:23:39;0.90;;;0.90;;
13649;SDS011;6898;50.918;4.688;2023-10-31T01:26:08;0.90;;;0.90;;
13649;SDS011;6898;50.918;4.688;2023-10-31T01:28:36;0.90;;;0.90;;
13649;SDS011;6898;50.918;4.688;2023-10-31T01:31:04;0.90;;;0.90;;
13649;SDS011;6898;50.918;4.688;2023-10-31T01:33:32;0.90;;;0.90;;
13649;SDS011;6898;50.918;4.688;2023-10-31T01:36:03;0.90;;;0.90;;
13649;SDS011;6898;50.918;4.688;2023-10-31T01:38:31;0.80;;;0.80;;
13649;SDS011;6898;50.918;4.688;2023-10-31T01:40:59;0.80;;;0.80;;
13649;SDS011;6898;50.918;4.688;2023-10-31T01:43:31;0.90;;;0.90;;
13649;SDS011;6898;50.918;4.688;2023-10-31T01:46:00;0.80;;;0.80;;
13649;SDS011;6898;50.918;4.688;2023-10-31T01:48:29;0.90;;;0.90;;
13649;SDS011;6898;50.918;4.688;2023-10-31T01:50:58;0.90;;;0.90;;
13649;SDS011;6898;50.918;4.688;2023-10-31T01:53:28;0.80;;;0.80;;
13649;SDS011;6898;50.918;4.688;2023-10-31T01:56:00;0.80;;;0.80;;
13649;SDS011;6898;50.918;4.688;2023-10-31T01:58:30;0.80;;;0.80;;
13649;SDS011;6898;50.918;4.688;2023-10-31T02:01:00;0.80;;;0.80;;
13649;SDS011;6898;50.918;4.688;2023-10-31T02:03:29;0.80;;;0.80;;
13649;SDS011;6898;50.918;4.688;2023-10-31T02:05:59;0.73;;;0.73;;
13649;SDS011;6898;50.918;4.688;2023-10-31T02:08:29;0.80;;;0.80;;
13649;SDS011;6898;50.918;4.688;2023-10-31T02:10:57;0.80;;;0.80;;
13649;SDS011;6898;50.918;4.688;2023-10-31T02:13:26;0.80;;;0.80;;
13649;SDS011;6898;50.918;4.688;2023-10-31T02:15:54;0.70;;;0.70;;
13649;SDS011;6898;50.918;4.688;2023-10-31T02:18:22;0.70;;;0.70;;
13649;SDS011;6898;50.918;4.688;2023-10-31T02:20:50;0.80;;;0.80;;
13649;SDS011;6898;50.918;4.688;2023-10-31T02:23:20;0.80;;;0.80;;
13649;SDS011;6898;50.918;4.688;2023-10-31T02:25:51;0.80;;;0.80;;
13649;SDS011;6898;50.918;4.688;2023-10-31T02:28:19;1.10;;;1.00;;
13649;SDS011;6898;50.918;4.688;2023-10-31T02:30:48;0.80;;;0.80;;
13649;SDS011;6898;50.918;4.688;2023-10-31T02:33:16;0.90;;;0.90;;
13649;SDS011;6898;50.918;4.688;2023-10-31T02:35:44;0.80;;;0.80;;
13649;SDS011;6898;50.918;4.688;2023-10-31T02:38:12;0.90;;;0.90;;
13649;SDS011;6898;50.918;4.688;2023-10-31T02:40:42;0.80;;;0.80;;
13649;SDS011;6898;50.918;4.688;2023-10-31T02:43:10;0.80;;;0.80;;
13649;SDS011;6898;50.918;4.688;2023-10-31T02:45:38;0.70;;;0.70;;
13649;SDS011;6898;50.918;4.688;2023-10-31T02:48:07;0.80;;;0.80;;
13649;SDS011;6898;50.918;4.688;2023-10-31T02:50:35;0.70;;;0.70;;
13649;SDS011;6898;50.918;4.688;2023-10-31T02:53:05;0.80;;;0.80;;
13649;SDS011;6898;50.918;4.688;2023-10-31T02:55:33;0.80;;;0.80;;
13649;SDS011;6898;50.918;4.688;2023-10-31T02:58:03;0.80;;;0.80;;
13649;SDS011;6898;50.918;4.688;2023-10-31T03:00:31;1.10;;;1.00;;
13649;SDS011;6898;50.918;4.688;2023-10-31T03:02:59;0.75;;;0.75;;
13649;SDS011;6898;50.918;4.688;2023-10-31T03:05:28;0.80;;;0.80;;
13649;SDS011;6898;50.918;4.688;2023-10-31T03:07:56;0.70;;;0.70;;
13649;SDS011;6898;50.918;4.688;2023-10-31T03:10:24;0.80;;;0.80;;
13649;SDS011;6898;50.918;4.688;2023-10-31T03:12:54;0.80;;;0.80;;
13649;SDS011;6898;50.918;4.688;2023-10-31T03:15:23;0.80;;;0.80;;
13649;SDS011;6898;50.918;4.688;2023-10-31T03:17:51;0.90;;;0.90;;
13649;SDS011;6898;50.918;4.688;2023-10-31T03:20:20;0.90;;;0.85;;
13649;SDS011;6898;50.918;4.688;2023-10-31T03:22:48;0.80;;;0.80;;
13649;SDS011;6898;50.918;4.688;2023-10-31T03:25:17;0.90;;;0.90;;
13649;SDS011;6898;50.918;4.688;2023-10-31T03:27:45;0.80;;;0.80;;
13649;SDS011;6898;50.918;4.688;2023-10-31T03:30:13;0.70;;;0.70;;
13649;SDS011;6898;50.918;4.688;2023-10-31T03:32:43;0.80;;;0.80;;
13649;SDS011;6898;50.918;4.688;2023-10-31T03:35:11;0.80;;;0.80;;
13649;SDS011;6898;50.918;4.688;2023-10-31T03:37:39;0.80;;;0.80;;
13649;SDS011;6898;50.918;4.688;2023-10-31T03:40:08;0.70;;;0.70;;
13649;SDS011;6898;50.918;4.688;2023-10-31T03:42:37;0.70;;;0.70;;
13649;SDS011;6898;50.918;4.688;2023-10-31T03:45:05;0.80;;;0.80;;
13649;SDS011;6898;50.918;4.688;2023-10-31T03:47:34;0.70;;;0.70;;
13649;SDS011;6898;50.918;4.688;2023-10-31T03:50:04;0.70;;;0.70;;
13649;SDS011;6898;50.918;4.688;2023-10-31T03:52:33;0.70;;;0.70;;
13649;SDS011;6898;50.918;4.688;2023-10-31T03:55:01;0.70;;;0.70;;
13649;SDS011;6898;50.918;4.688;2023-10-31T03:57:30;0.70;;;0.70;;
13649;SDS011;6898;50.918;4.688;2023-10-31T03:59:58;0.70;;;0.70;;
13649;SDS011;6898;50.918;4.688;2023-10-31T04:02:27;0.80;;;0.80;;
13649;SDS011;6898;50.918;4.688;2023-10-31T04:04:55;0.70;;;0.70;;
13649;SDS011;6898;50.918;4.688;2023-10-31T04:07:25;0.70;;;0.70;;
13649;SDS011;6898;50.918;4.688;2023-10-31T04:09:53;0.70;;;0.70;;
13649;SDS011;6898;50.918;4.688;2023-10-31T04:12:22;0.80;;;0.80;;
13649;SDS011;6898;50.918;4.688;2023-10-31T04:14:51;0.70;;;0.70;;
13649;SDS011;6898;50.918;4.688;2023-10-31T04:17:19;0.70;;;0.70;;
13649;SDS011;6898;50.918;4.688;2023-10-31T04:19:47;0.80;;;0.80;;
13649;SDS011;6898;50.918;4.688;2023-10-31T04:22:15;0.70;;;0.70;;
13649;SDS011;6898;50.918;4.688;2023-10-31T04:24:45;0.70;;;0.70;;
13649;SDS011;6898;50.918;4.688;2023-10-31T04:27:13;0.75;;;0.75;;
13649;SDS011;6898;50.918;4.688;2023-10-31T04:29:41;0.80;;;0.80;;
13649;SDS011;6898;50.918;4.688;2023-10-31T04:32:09;0.80;;;0.80;;
13649;SDS011;6898;50.918;4.688;2023-10-31T04:34:38;0.80;;;0.80;;
13649;SDS011;6898;50.918;4.688;2023-10-31T04:37:06;0.70;;;0.70;;
13649;SDS011;6898;50.918;4.688;2023-10-31T04:39:34;0.70;;;0.70;;
13649;SDS011;6898;50.918;4.688;2023-10-31T04:42:04;0.70;;;0.70;;
13649;SDS011;6898;50.918;4.688;2023-10-31T04:44:33;0.80;;;0.80;;
13649;SDS011;6898;50.918;4.688;2023-10-31T04:47:01;0.70;;;0.70;;
13649;SDS011;6898;50.918;4.688;2023-10-31T04:49:29;0.80;;;0.80;;
13649;SDS011;6898;50.918;4.688;2023-10-31T04:51:57;0.80;;;0.80;;
13649;SDS011;6898;50.918;4.688;2023-10-31T04:54:26;0.80;;;0.80;;
13649;SDS011;6898;50.918;4.688;2023-10-31T04:56:54;0.70;;;0.70;;
13649;SDS011;6898;50.918;4.688;2023-10-31T04:59:23;0.70;;;0.70;;
13649;SDS011;6898;50.918;4.688;2023-10-31T05:01:51;0.70;;;0.70;;
13649;SDS011;6898;50.918;4.688;2023-10-31T05:04:21;0.82;;;0.82;;
13649;SDS011;6898;50.918;4.688;2023-10-31T05:06:49;0.80;;;0.80;;
13649;SDS011;6898;50.918;4.688;2023-10-31T05:09:18;0.80;;;0.80;;
13649;SDS011;6898;50.918;4.688;2023-10-31T05:11:46;0.70;;;0.70;;
13649;SDS011;6898;50.918;4.688;2023-10-31T05:14:14;0.80;;;0.80;;
13649;SDS011;6898;50.918;4.688;2023-10-31T05:16:43;0.90;;;0.90;;
13649;SDS011;6898;50.918;4.688;2023-10-31T05:19:11;0.90;;;0.90;;
13649;SDS011;6898;50.918;4.688;2023-10-31T05:21:40;1.00;;;1.00;;
13649;SDS011;6898;50.918;4.688;2023-10-31T05:24:08;0.70;;;0.70;;
13649;SDS011;6898;50.918;4.688;2023-10-31T05:26:37;0.80;;;0.80;;
13649;SDS011;6898;50.918;4.688;2023-10-31T05:29:08;0.70;;;0.70;;
13649;SDS011;6898;50.918;4.688;2023-10-31T05:31:36;0.70;;;0.70;;
13649;SDS011;6898;50.918;4.688;2023-10-31T05:34:06;0.70;;;0.70;;
13649;SDS011;6898;50.918;4.688;2023-10-31T05:36:34;0.70;;;0.70;;
13649;SDS011;6898;50.918;4.688;2023-10-31T05:39:02;0.75;;;0.75;;
13649;SDS011;6898;50.918;4.688;2023-10-31T05:41:33;0.80;;;0.80;;
13649;SDS011;6898;50.918;4.688;2023-10-31T05:44:02;0.70;;;0.70;;
13649;SDS011;6898;50.918;4.688;2023-10-31T05:46:30;0.70;;;0.70;;
13649;SDS011;6898;50.918;4.688;2023-10-31T05:48:58;0.75;;;0.75;;
13649;SDS011;6898;50.918;4.688;2023-10-31T05:51:28;0.80;;;0.80;;
13649;SDS011;6898;50.918;4.688;2023-10-31T05:53:56;0.80;;;0.80;;
13649;SDS011;6898;50.918;4.688;2023-10-31T05:56:24;0.80;;;0.80;;
13649;SDS011;6898;50.918;4.688;2023-10-31T05:58:53;0.90;;;0.90;;
13649;SDS011;6898;50.918;4.688;2023-10-31T06:01:21;0.80;;;0.80;;
13649;SDS011;6898;50.918;4.688;2023-10-31T06:03:49;0.90;;;0.90;;
13649;SDS011;6898;50.918;4.688;2023-10-31T06:06:17;0.80;;;0.80;;
13649;SDS011;6898;50.918;4.688;2023-10-31T06:08:47;0.80;;;0.80;;
13649;SDS011;6898;50.918;4.688;2023-10-31T06:11:15;0.80;;;0.80;;
13649;SDS011;6898;50.918;4.688;2023-10-31T06:13:46;0.88;;;0.88;;
13649;SDS011;6898;50.918;4.688;2023-10-31T06:16:15;0.80;;;0.80;;
13649;SDS011;6898;50.918;4.688;2023-10-31T06:18:43;0.98;;;0.95;;
13649;SDS011;6898;50.918;4.688;2023-10-31T06:21:12;0.80;;;0.80;;
13649;SDS011;6898;50.918;4.688;2023-10-31T06:23:40;0.80;;;0.80;;
13649;SDS011;6898;50.918;4.688;2023-10-31T06:26:12;0.77;;;0.77;;
13649;SDS011;6898;50.918;4.688;2023-10-31T06:28:40;0.77;;;0.77;;
13649;SDS011;6898;50.918;4.688;2023-10-31T06:31:10;0.70;;;0.70;;
13649;SDS011;6898;50.918;4.688;2023-10-31T06:33:39;0.80;;;0.80;;
13649;SDS011;6898;50.918;4.688;2023-10-31T06:36:08;0.80;;;0.80;;
13649;SDS011;6898;50.918;4.688;2023-10-31T06:38:36;0.80;;;0.80;;
13649;SDS011;6898;50.918;4.688;2023-10-31T06:41:05;0.80;;;0.80;;
13649;SDS011;6898;50.918;4.688;2023-10-31T06:43:34;0.90;;;0.90;;
13649;SDS011;6898;50.918;4.688;2023-10-31T06:46:03;0.70;;;0.70;;
13649;SDS011;6898;50.918;4.688;2023-10-31T06:48:32;0.70;;;0.70;;
13649;SDS011;6898;50.918;4.688;2023-10-31T06:51:00;0.73;;;0.73;;
13649;SDS011;6898;50.918;4.688;2023-10-31T06:53:28;0.80;;;0.80;;
13649;SDS011;6898;50.918;4.688;2023-10-31T06:55:57;0.70;;;0.70;;
13649;SDS011;6898;50.918;4.688;2023-10-31T06:58:25;0.70;;;0.70;;
13649;SDS011;6898;50.918;4.688;2023-10-31T07:00:54;0.70;;;0.70;;
13649;SDS011;6898;50.918;4.688;2023-10-31T07:03:26;0.70;;;0.70;;
13649;SDS011;6898;50.918;4.688;2023-10-31T07:05:54;0.80;;;0.80;;
13649;SDS011;6898;50.918;4.688;2023-10-31T07:08:22;0.70;;;0.70;;
13649;SDS011;6898;50.918;4.688;2023-10-31T07:10:51;0.70;;;0.70;;
13649;SDS011;6898;50.918;4.688;2023-10-31T07:13:19;0.80;;;0.80;;
13649;SDS011;6898;50.918;4.688;2023-10-31T07:15:47;0.70;;;0.70;;
13649;SDS011;6898;50.918;4.688;2023-10-31T07:18:17;0.70;;;0.70;;
13649;SDS011;6898;50.918;4.688;2023-10-31T07:20:45;0.80;;;0.80;;
13649;SDS011;6898;50.918;4.688;2023-10-31T07:23:13;0.70;;;0.70;;
13649;SDS011;6898;50.918;4.688;2023-10-31T07:25:42;0.80;;;0.80;;
13649;SDS011;6898;50.918;4.688;2023-10-31T07:28:11;0.90;;;0.90;;
13649;SDS011;6898;50.918;4.688;2023-10-31T07:30:40;0.80;;;0.80;;
13649;SDS011;6898;50.918;4.688;2023-10-31T07:33:08;0.80;;;0.80;;
13649;SDS011;6898;50.918;4.688;2023-10-31T07:35:37;0.80;;;0.80;;
13649;SDS011;6898;50.918;4.688;2023-10-31T07:38:06;0.80;;;0.80;;
13649;SDS011;6898;50.918;4.688;2023-10-31T07:40:35;0.75;;;0.75;;
13649;SDS011;6898;50.918;4.688;2023-10-31T07:43:03;0.90;;;0.90;;
13649;SDS011;6898;50.918;4.688;2023-10-31T07:45:32;0.90;;;0.90;;
13649;SDS011;6898;50.918;4.688;2023-10-31T07:48:01;0.70;;;0.70;;
13649;SDS011;6898;50.918;4.688;2023-10-31T07:50:30;0.70;;;0.70;;
13649;SDS011;6898;50.918;4.688;2023-10-31T07:53:00;0.70;;;0.70;;
13649;SDS011;6898;50.918;4.688;2023-10-31T07:55:29;0.70;;;0.70;;
13649;SDS011;6898;50.918;4.688;2023-10-31T07:57:57;0.80;;;0.80;;
13649;SDS011;6898;50.918;4.688;2023-10-31T08:00:25;0.80;;;0.80;;
13649;SDS011;6898;50.918;4.688;2023-10-31T08:02:54;0.70;;;0.70;;
13649;SDS011;6898;50.918;4.688;2023-10-31T08:05:22;0.80;;;0.80;;
13649;SDS011;6898;50.918;4.688;2023-10-31T08:07:51;0.80;;;0.80;;
13649;SDS011;6898;50.918;4.688;2023-10-31T08:10:21;0.70;;;0.70;;
13649;SDS011;6898;50.918;4.688;2023-10-31T08:12:49;0.77;;;0.77;;
13649;SDS011;6898;50.918;4.688;2023-10-31T08:15:18;0.70;;;0.70;;
13649;SDS011;6898;50.918;4.688;2023-10-31T08:17:46;0.90;;;0.90;;
13649;SDS011;6898;50.918;4.688;2023-10-31T08:20:15;0.70;;;0.70;;
13649;SDS011;6898;50.918;4.688;2023-10-31T08:22:44;0.88;;;0.88;;
13649;SDS011;6898;50.918;4.688;2023-10-31T08:25:13;0.80;;;0.80;;
13649;SDS011;6898;50.918;4.688;2023-10-31T08:27:43;0.80;;;0.80;;
13649;SDS011;6898;50.918;4.688;2023-10-31T08:30:12;0.80;;;0.80;;
13649;SDS011;6898;50.918;4.688;2023-10-31T08:32:40;0.93;;;0.93;;
13649;SDS011;6898;50.918;4.688;2023-10-31T08:35:09;0.90;;;0.90;;
13649;SDS011;6898;50.918;4.688;2023-10-31T08:37:37;0.80;;;0.80;;
13649;SDS011;6898;50.918;4.688;2023-10-31T08:40:07;0.82;;;0.82;;
13649;SDS011;6898;50.918;4.688;2023-10-31T08:42:35;0.80;;;0.80;;
13649;SDS011;6898;50.918;4.688;2023-10-31T08:45:06;0.80;;;0.80;;
13649;SDS011;6898;50.918;4.688;2023-10-31T08:47:34;0.87;;;0.87;;
13649;SDS011;6898;50.918;4.688;2023-10-31T08:50:03;0.70;;;0.70;;
13649;SDS011;6898;50.918;4.688;2023-10-31T08:52:34;0.80;;;0.80;;
13649;SDS011;6898;50.918;4.688;2023-10-31T08:55:03;1.00;;;0.90;;
13649;SDS011;6898;50.918;4.688;2023-10-31T08:57:32;0.77;;;0.77;;
13649;SDS011;6898;50.918;4.688;2023-10-31T09:00:01;0.80;;;0.80;;
13649;SDS011;6898;50.918;4.688;2023-10-31T09:02:32;0.80;;;0.80;;
13649;SDS011;6898;50.918;4.688;2023-10-31T09:05:01;0.80;;;0.80;;
13649;SDS011;6898;50.918;4.688;2023-10-31T09:07:30;0.80;;;0.80;;
13649;SDS011;6898;50.918;4.688;2023-10-31T09:09:59;0.80;;;0.80;;
13649;SDS011;6898;50.918;4.688;2023-10-31T09:12:28;0.80;;;0.80;;
13649;SDS011;6898;50.918;4.688;2023-10-31T09:14:58;0.80;;;0.80;;
13649;SDS011;6898;50.918;4.688;2023-10-31T09:17:27;0.80;;;0.80;;
13649;SDS011;6898;50.918;4.688;2023-10-31T09:19:57;0.80;;;0.80;;
13649;SDS011;6898;50.918;4.688;2023-10-31T09:22:26;0.90;;;0.90;;
13649;SDS011;6898;50.918;4.688;2023-10-31T09:24:54;0.80;;;0.80;;
13649;SDS011;6898;50.918;4.688;2023-10-31T09:27:23;0.90;;;0.90;;
13649;SDS011;6898;50.918;4.688;2023-10-31T09:29:52;0.73;;;0.73;;
13649;SDS011;6898;50.918;4.688;2023-10-31T09:32:20;0.90;;;0.90;;
13649;SDS011;6898;50.918;4.688;2023-10-31T09:34:49;0.70;;;0.70;;
13649;SDS011;6898;50.918;4.688;2023-10-31T09:37:19;0.80;;;0.80;;
13649;SDS011;6898;50.918;4.688;2023-10-31T09:39:47;0.80;;;0.80;;
13649;SDS011;6898;50.918;4.688;2023-10-31T09:42:16;0.90;;;0.90;;
13649;SDS011;6898;50.918;4.688;2023-10-31T09:44:45;0.80;;;0.80;;
13649;SDS011;6898;50.918;4.688;2023-10-31T09:47:13;0.80;;;0.80;;
13649;SDS011;6898;50.918;4.688;2023-10-31T09:49:43;0.80;;;0.80;;
13649;SDS011;6898;50.918;4.688;2023-10-31T09:52:12;0.80;;;0.80;;
13649;SDS011;6898;50.918;4.688;2023-10-31T09:54:42;0.80;;;0.80;;
13649;SDS011;6898;50.918;4.688;2023-10-31T09:57:12;0.80;;;0.80;;
13649;SDS011;6898;50.918;4.688;2023-10-31T09:59:41;0.80;;;0.80;;
13649;SDS011;6898;50.918;4.688;2023-10-31T10:02:09;0.80;;;0.80;;
13649;SDS011;6898;50.918;4.688;2023-10-31T10:04:38;0.90;;;0.90;;
13649;SDS011;6898;50.918;4.688;2023-10-31T10:07:06;0.80;;;0.80;;
13649;SDS011;6898;50.918;4.688;2023-10-31T10:09:35;0.80;;;0.80;;
13649;SDS011;6898;50.918;4.688;2023-10-31T10:12:06;0.88;;;0.88;;
13649;SDS011;6898;50.918;4.688;2023-10-31T10:14:34;0.80;;;0.80;;
13649;SDS011;6898;50.918;4.688;2023-10-31T10:17:04;0.88;;;0.88;;
13649;SDS011;6898;50.918;4.688;2023-10-31T10:19:42;0.80;;;0.80;;
13649;SDS011;6898;50.918;4.688;2023-10-31T10:22:10;0.80;;;0.80;;
13649;SDS011;6898;50.918;4.688;2023-10-31T10:24:40;0.82;;;0.82;;
13649;SDS011;6898;50.918;4.688;2023-10-31T10:27:10;0.90;;;0.90;;
13649;SDS011;6898;50.918;4.688;2023-10-31T10:29:39;0.80;;;0.80;;
13649;SDS011;6898;50.918;4.688;2023-10-31T10:32:08;0.90;;;0.90;;
13649;SDS011;6898;50.918;4.688;2023-10-31T10:34:36;0.90;;;0.90;;
13649;SDS011;6898;50.918;4.688;2023-10-31T10:37:05;0.98;;;0.98;;
13649;SDS011;6898;50.918;4.688;2023-10-31T10:39:34;0.98;;;0.98;;
13649;SDS011;6898;50.918;4.688;2023-10-31T10:42:05;0.93;;;0.93;;
13649;SDS011;6898;50.918;4.688;2023-10-31T10:44:39;0.90;;;0.90;;
13649;SDS011;6898;50.918;4.688;2023-10-31T10:47:14;0.90;;;0.90;;
13649;SDS011;6898;50.918;4.688;2023-10-31T10:49:44;0.87;;;0.87;;
13649;SDS011;6898;50.918;4.688;2023-10-31T10:52:17;0.70;;;0.70;;
13649;SDS011;6898;50.918;4.688;2023-10-31T10:54:52;0.70;;;0.70;;
13649;SDS011;6898;50.918;4.688;2023-10-31T10:57:35;0.70;;;0.70;;
13649;SDS011;6898;50.918;4.688;2023-10-31T11:00:05;0.75;;;0.75;;
13649;SDS011;6898;50.918;4.688;2023-10-31T11:02:38;0.70;;;0.70;;
13649;SDS011;6898;50.918;4.688;2023-10-31T11:05:09;0.80;;;0.80;;
13649;SDS011;6898;50.918;4.688;2023-10-31T11:07:38;0.70;;;0.70;;
13649;SDS011;6898;50.918;4.688;2023-10-31T11:10:07;0.70;;;0.70;;
13649;SDS011;6898;50.918;4.688;2023-10-31T11:12:37;0.70;;;0.70;;
13649;SDS011;6898;50.918;4.688;2023-10-31T11:15:06;0.80;;;0.80;;
13649;SDS011;6898;50.918;4.688;2023-10-31T11:17:36;0.70;;;0.70;;
13649;SDS011;6898;50.918;4.688;2023-10-31T11:20:06;0.70;;;0.70;;
13649;SDS011;6898;50.918;4.688;2023-10-31T11:22:38;0.70;;;0.70;;
13649;SDS011;6898;50.918;4.688;2023-10-31T11:25:07;0.70;;;0.70;;
13649;SDS011;6898;50.918;4.688;2023-10-31T11:27:38;0.70;;;0.70;;
13649;SDS011;6898;50.918;4.688;2023-10-31T11:30:08;0.70;;;0.70;;
13649;SDS011;6898;50.918;4.688;2023-10-31T11:32:48;0.80;;;0.80;;
13649;SDS011;6898;50.918;4.688;2023-10-31T11:35:16;0.80;;;0.80;;
13649;SDS011;6898;50.918;4.688;2023-10-31T11:37:47;0.80;;;0.80;;
13649;SDS011;6898;50.918;4.688;2023-10-31T11:40:16;0.80;;;0.80;;
13649;SDS011;6898;50.918;4.688;2023-10-31T11:42:50;0.80;;;0.80;;
13649;SDS011;6898;50.918;4.688;2023-10-31T11:45:25;0.80;;;0.80;;
13649;SDS011;6898;50.918;4.688;2023-10-31T11:47:53;0.80;;;0.80;;
13649;SDS011;6898;50.918;4.688;2023-10-31T11:50:21;0.80;;;0.80;;
13649;SDS011;6898;50.918;4.688;2023-10-31T11:52:59;0.70;;;0.70;;
13649;SDS011;6898;50.918;4.688;2023-10-31T11:55:29;0.80;;;0.80;;
13649;SDS011;6898;50.918;4.688;2023-10-31T11:58:12;0.80;;;0.80;;
13649;SDS011;6898;50.918;4.688;2023-10-31T12:00:40;0.80;;;0.80;;
13649;SDS011;6898;50.918;4.688;2023-10-31T12:03:10;0.80;;;0.80;;
13649;SDS011;6898;50.918;4.688;2023-10-31T12:05:39;0.70;;;0.70;;
13649;SDS011;6898;50.918;4.688;2023-10-31T12:08:07;0.80;;;0.80;;
13649;SDS011;6898;50.918;4.688;2023-10-31T12:10:36;0.80;;;0.80;;
13649;SDS011;6898;50.918;4.688;2023-10-31T12:13:05;0.80;;;0.80;;
13649;SDS011;6898;50.918;4.688;2023-10-31T12:15:52;0.80;;;0.80;;
13649;SDS011;6898;50.918;4.688;2023-10-31T12:18:21;0.80;;;0.80;;
13649;SDS011;6898;50.918;4.688;2023-10-31T12:20:49;0.80;;;0.80;;
13649;SDS011;6898;50.918;4.688;2023-10-31T12:23:19;0.80;;;0.80;;
13649;SDS011;6898;50.918;4.688;2023-10-31T12:25:47;0.80;;;0.80;;
13649;SDS011;6898;50.918;4.688;2023-10-31T12:28:16;0.80;;;0.80;;
13649;SDS011;6898;50.918;4.688;2023-10-31T12:30:45;0.80;;;0.80;;
13649;SDS011;6898;50.918;4.688;2023-10-31T12:33:15;0.80;;;0.80;;
13649;SDS011;6898;50.918;4.688;2023-10-31T12:35:44;0.80;;;0.80;;
13649;SDS011;6898;50.918;4.688;2023-10-31T12:38:14;0.80;;;0.80;;
13649;SDS011;6898;50.918;4.688;2023-10-31T12:40:44;0.80;;;0.80;;
13649;SDS011;6898;50.918;4.688;2023-10-31T12:43:12;0.80;;;0.80;;
13649;SDS011;6898;50.918;4.688;2023-10-31T12:45:41;0.82;;;0.82;;
13649;SDS011;6898;50.918;4.688;2023-10-31T12:48:10;0.90;;;0.90;;
13649;SDS011;6898;50.918;4.688;2023-10-31T12:50:40;0.95;;;0.93;;
13649;SDS011;6898;50.918;4.688;2023-10-31T12:53:09;0.90;;;0.90;;
13649;SDS011;6898;50.918;4.688;2023-10-31T12:55:38;0.90;;;0.90;;
13649;SDS011;6898;50.918;4.688;2023-10-31T12:58:07;0.90;;;0.90;;
13649;SDS011;6898;50.918;4.688;2023-10-31T13:00:41;0.93;;;0.93;;
13649;SDS011;6898;50.918;4.688;2023-10-31T13:03:09;0.90;;;0.90;;
13649;SDS011;6898;50.918;4.688;2023-10-31T13:05:38;0.90;;;0.90;;
13649;SDS011;6898;50.918;4.688;2023-10-31T13:08:13;0.80;;;0.80;;
13649;SDS011;6898;50.918;4.688;2023-10-31T13:10:43;0.80;;;0.80;;
13649;SDS011;6898;50.918;4.688;2023-10-31T13:13:11;0.80;;;0.80;;
13649;SDS011;6898;50.918;4.688;2023-10-31T13:15:40;0.90;;;0.90;;
13649;SDS011;6898;50.918;4.688;2023-10-31T13:18:08;0.80;;;0.80;;
13649;SDS011;6898;50.918;4.688;2023-10-31T13:20:38;0.90;;;0.90;;
13649;SDS011;6898;50.918;4.688;2023-10-31T13:23:06;0.80;;;0.80;;
13649;SDS011;6898;50.918;4.688;2023-10-31T13:25:36;0.90;;;0.90;;
13649;SDS011;6898;50.918;4.688;2023-10-31T13:28:04;0.90;;;0.90;;
13649;SDS011;6898;50.918;4.688;2023-10-31T13:30:36;0.90;;;0.90;;
13649;SDS011;6898;50.918;4.688;2023-10-31T13:33:04;0.80;;;0.80;;
13649;SDS011;6898;50.918;4.688;2023-10-31T13:35:34;0.80;;;0.80;;
13649;SDS011;6898;50.918;4.688;2023-10-31T13:38:02;0.80;;;0.80;;
13649;SDS011;6898;50.918;4.688;2023-10-31T13:40:31;0.95;;;0.95;;
13649;SDS011;6898;50.918;4.688;2023-10-31T13:43:01;0.95;;;0.95;;
13649;SDS011;6898;50.918;4.688;2023-10-31T13:45:31;1.10;;;1.10;;
13649;SDS011;6898;50.918;4.688;2023-10-31T13:48:00;1.30;;;1.20;;
13649;SDS011;6898;50.918;4.688;2023-10-31T13:50:28;1.00;;;1.00;;
13649;SDS011;6898;50.918;4.688;2023-10-31T13:52:57;1.10;;;1.00;;
13649;SDS011;6898;50.918;4.688;2023-10-31T13:55:25;0.98;;;0.98;;
13649;SDS011;6898;50.918;4.688;2023-10-31T13:57:54;1.10;;;1.00;;
13649;SDS011;6898;50.918;4.688;2023-10-31T14:00:24;1.00;;;1.00;;
13649;SDS011;6898;50.918;4.688;2023-10-31T14:02:52;1.00;;;1.00;;
13649;SDS011;6898;50.918;4.688;2023-10-31T14:05:21;1.20;;;1.10;;
13649;SDS011;6898;50.918;4.688;2023-10-31T14:07:49;1.17;;;1.10;;
13649;SDS011;6898;50.918;4.688;2023-10-31T14:10:20;1.00;;;1.00;;
13649;SDS011;6898;50.918;4.688;2023-10-31T14:12:49;0.90;;;0.90;;
13649;SDS011;6898;50.918;4.688;2023-10-31T14:15:18;1.00;;;1.00;;
13649;SDS011;6898;50.918;4.688;2023-10-31T14:17:50;0.90;;;0.90;;
13649;SDS011;6898;50.918;4.688;2023-10-31T14:20:18;0.80;;;0.80;;
13649;SDS011;6898;50.918;4.688;2023-10-31T14:22:47;0.80;;;0.80;;
13649;SDS011;6898;50.918;4.688;2023-10-31T14:25:16;0.80;;;0.80;;
13649;SDS011;6898;50.918;4.688;2023-10-31T14:27:45;0.80;;;0.80;;
13649;SDS011;6898;50.918;4.688;2023-10-31T14:30:13;0.80;;;0.80;;
13649;SDS011;6898;50.918;4.688;2023-10-31T14:32:42;0.90;;;0.90;;
13649;SDS011;6898;50.918;4.688;2023-10-31T14:35:12;0.90;;;0.90;;
13649;SDS011;6898;50.918;4.688;2023-10-31T14:37:41;0.80;;;0.80;;
13649;SDS011;6898;50.918;4.688;2023-10-31T14:40:10;0.80;;;0.80;;
13649;SDS011;6898;50.918;4.688;2023-10-31T14:42:39;0.80;;;0.80;;
13649;SDS011;6898;50.918;4.688;2023-10-31T14:45:08;0.90;;;0.90;;
13649;SDS011;6898;50.918;4.688;2023-10-31T14:47:36;0.80;;;0.80;;
13649;SDS011;6898;50.918;4.688;2023-10-31T14:50:05;0.80;;;0.80;;
13649;SDS011;6898;50.918;4.688;2023-10-31T14:52:35;0.80;;;0.80;;
13649;SDS011;6898;50.918;4.688;2023-10-31T14:55:04;0.80;;;0.80;;
13649;SDS011;6898;50.918;4.688;2023-10-31T14:57:33;0.80;;;0.80;;
13649;SDS011;6898;50.918;4.688;2023-10-31T15:00:02;1.10;;;1.00;;
13649;SDS011;6898;50.918;4.688;2023-10-31T15:02:31;0.80;;;0.80;;
13649;SDS011;6898;50.918;4.688;2023-10-31T15:05:00;0.90;;;0.90;;
13649;SDS011;6898;50.918;4.688;2023-10-31T15:07:30;0.90;;;0.90;;
13649;SDS011;6898;50.918;4.688;2023-10-31T15:10:00;0.80;;;0.80;;
13649;SDS011;6898;50.918;4.688;2023-10-31T15:12:29;0.80;;;0.80;;